createdAt,value
2018-12-31T00:01:05.310Z,36.57
2018-12-31T00:02:15.422Z,34.90
2018-12-31T00:03:20.680Z,35.57
2018-12-31T00:04:25.964Z,34.53
2018-12-31T00:05:31.247Z,36.47
2018-12-31T00:06:36.536Z,35.43
2018-12-31T00:07:41.819Z,35.27
2018-12-31T00:08:47.123Z,35.43
2018-12-31T00:09:52.382Z,34.50
2018-12-31T00:10:57.573Z,33.90
2018-12-31T00:12:02.803Z,32.87
2018-12-31T00:13:08.102Z,35.13
2018-12-31T00:14:13.375Z,30.67
2018-12-31T00:15:18.670Z,33.63
2018-12-31T00:16:23.985Z,31.00
2018-12-31T00:17:29.145Z,31.70
2018-12-31T00:18:34.390Z,29.00
2018-12-31T00:19:39.618Z,36.87
2018-12-31T00:20:44.827Z,35.90
2018-12-31T00:21:50.044Z,41.50
2018-12-31T00:22:55.344Z,58.27
2018-12-31T00:24:00.712Z,36.90
2018-12-31T00:25:06.048Z,33.03
2018-12-31T00:26:11.296Z,37.47
2018-12-31T00:27:16.514Z,33.90
2018-12-31T00:28:21.831Z,33.43
2018-12-31T00:29:27.145Z,30.13
2018-12-31T00:30:32.368Z,32.33
2018-12-31T00:31:37.619Z,33.83
2018-12-31T00:32:42.887Z,32.03
2018-12-31T00:33:48.132Z,31.33
2018-12-31T00:34:53.539Z,29.67
2018-12-31T00:35:58.724Z,34.23
2018-12-31T00:37:04.047Z,32.00
2018-12-31T00:38:09.297Z,30.87
2018-12-31T00:39:14.514Z,29.33
2018-12-31T00:40:19.861Z,28.20
2018-12-31T00:41:25.134Z,31.97
2018-12-31T00:42:30.272Z,31.07
2018-12-31T00:43:35.487Z,33.03
2018-12-31T00:44:40.759Z,31.73
2018-12-31T00:45:46.063Z,28.70
2018-12-31T00:46:51.235Z,31.00
2018-12-31T00:47:56.460Z,29.63
2018-12-31T00:49:01.758Z,29.77
2018-12-31T00:50:07.881Z,29.00
2018-12-31T00:51:13.160Z,31.00
2018-12-31T00:52:18.337Z,29.77
2018-12-31T00:53:23.622Z,30.27
2018-12-31T00:54:28.786Z,30.47
2018-12-31T00:55:34.968Z,31.13
2018-12-31T00:56:40.259Z,29.47
2018-12-31T00:57:45.574Z,31.10
2018-12-31T00:58:50.913Z,31.87
2018-12-31T00:59:56.123Z,30.67
2018-12-31T01:01:01.380Z,31.83
2018-12-31T01:02:06.682Z,28.00
2018-12-31T01:03:11.868Z,28.83
2018-12-31T01:04:17.142Z,32.90
2018-12-31T01:05:22.406Z,29.20
2018-12-31T01:06:27.651Z,31.30
2018-12-31T01:07:32.949Z,32.03
2018-12-31T01:08:38.172Z,29.67
2018-12-31T01:09:43.446Z,26.37
2018-12-31T01:10:48.751Z,30.23
2018-12-31T01:11:53.927Z,28.17
2018-12-31T01:12:59.215Z,28.00
2018-12-31T01:14:05.342Z,28.40
2018-12-31T01:15:10.496Z,26.23
2018-12-31T01:16:15.763Z,30.53
2018-12-31T01:17:21.052Z,30.13
2018-12-31T01:18:26.437Z,27.87
2018-12-31T01:19:31.685Z,27.13
2018-12-31T01:20:36.955Z,28.17
2018-12-31T01:21:42.142Z,28.73
2018-12-31T01:22:47.418Z,29.27
2018-12-31T01:23:52.678Z,26.57
2018-12-31T01:24:57.940Z,26.97
2018-12-31T01:26:03.274Z,28.73
2018-12-31T01:27:08.458Z,28.43
2018-12-31T01:28:13.761Z,27.03
2018-12-31T01:29:18.967Z,26.17
2018-12-31T01:30:24.278Z,29.03
2018-12-31T01:31:29.549Z,28.07
2018-12-31T01:32:34.828Z,26.70
2018-12-31T01:33:40.076Z,25.53
2018-12-31T01:34:45.239Z,27.33
2018-12-31T01:35:50.503Z,27.43
2018-12-31T01:36:55.804Z,27.87
2018-12-31T01:38:01.074Z,24.63
2018-12-31T01:39:07.205Z,24.73
2018-12-31T01:40:12.395Z,27.77
2018-12-31T01:41:17.644Z,26.50
2018-12-31T01:42:22.911Z,27.63
2018-12-31T01:43:28.175Z,27.63
2018-12-31T01:44:33.436Z,26.83
2018-12-31T01:45:38.587Z,25.50
2018-12-31T01:46:43.771Z,26.57
2018-12-31T01:47:49.028Z,26.17
2018-12-31T01:48:54.280Z,27.07
2018-12-31T01:49:59.459Z,28.40
2018-12-31T01:51:11.343Z,24.13
2018-12-31T01:52:11.674Z,27.10
2018-12-31T01:53:16.918Z,25.67
2018-12-31T01:54:22.170Z,26.47
2018-12-31T01:55:27.496Z,26.27
2018-12-31T01:56:32.678Z,26.67
2018-12-31T01:57:38.043Z,27.23
2018-12-31T01:58:43.292Z,23.93
2018-12-31T01:59:48.491Z,23.20
2018-12-31T02:00:53.768Z,23.10
2018-12-31T02:01:59.027Z,26.43
2018-12-31T02:03:04.309Z,26.33
2018-12-31T02:04:09.596Z,24.93
2018-12-31T02:05:14.819Z,26.50
2018-12-31T02:06:20.082Z,25.00
2018-12-31T02:07:25.275Z,28.40
2018-12-31T02:08:30.612Z,25.70
2018-12-31T02:09:36.358Z,26.73
2018-12-31T02:10:41.706Z,26.60
2018-12-31T02:11:46.959Z,26.83
2018-12-31T02:12:52.244Z,24.17
2018-12-31T02:13:57.553Z,28.03
2018-12-31T02:15:02.855Z,26.03
2018-12-31T02:16:08.273Z,25.53
2018-12-31T02:17:13.539Z,26.83
2018-12-31T02:18:18.722Z,25.53
2018-12-31T02:19:24.004Z,23.83
2018-12-31T02:20:29.412Z,26.73
2018-12-31T02:21:34.693Z,25.10
2018-12-31T02:22:39.943Z,27.40
2018-12-31T02:23:45.183Z,26.10
2018-12-31T02:24:50.485Z,27.13
2018-12-31T02:25:55.756Z,27.33
2018-12-31T02:27:01.009Z,26.23
2018-12-31T02:28:06.308Z,27.07
2018-12-31T02:29:11.504Z,28.10
2018-12-31T02:30:16.966Z,28.93
2018-12-31T02:31:22.202Z,31.23
2018-12-31T02:32:27.407Z,31.83
2018-12-31T02:33:32.623Z,28.47
2018-12-31T02:34:37.990Z,29.27
2018-12-31T02:35:43.295Z,32.43
2018-12-31T02:36:48.582Z,31.30
2018-12-31T02:37:53.843Z,35.23
2018-12-31T02:38:59.133Z,36.93
2018-12-31T02:40:04.466Z,36.43
2018-12-31T02:41:09.805Z,35.20
2018-12-31T02:42:14.869Z,36.20
2018-12-31T02:43:20.045Z,36.63
2018-12-31T02:44:26.225Z,36.10
2018-12-31T02:45:31.570Z,36.80
2018-12-31T02:46:36.863Z,39.23
2018-12-31T02:47:42.045Z,38.80
2018-12-31T02:48:47.272Z,39.53
2018-12-31T02:49:52.524Z,40.97
2018-12-31T02:50:57.864Z,39.70
2018-12-31T02:52:03.067Z,40.43
2018-12-31T02:53:08.387Z,42.43
2018-12-31T02:54:13.584Z,42.20
2018-12-31T02:55:18.915Z,40.13
2018-12-31T02:56:24.116Z,45.23
2018-12-31T02:57:29.581Z,43.07
2018-12-31T02:58:34.792Z,41.77
2018-12-31T02:59:40.085Z,47.57
2018-12-31T03:00:45.372Z,45.07
2018-12-31T03:01:50.653Z,45.53
2018-12-31T03:02:55.888Z,39.63
2018-12-31T03:04:01.110Z,50.23
2018-12-31T03:05:07.510Z,47.93
2018-12-31T03:06:12.803Z,45.03
2018-12-31T03:07:18.025Z,46.13
2018-12-31T03:08:23.194Z,42.70
2018-12-31T03:09:29.395Z,48.53
2018-12-31T03:10:34.696Z,47.90
2018-12-31T03:11:39.964Z,48.20
2018-12-31T03:12:45.219Z,52.57
2018-12-31T03:13:50.614Z,50.47
2018-12-31T03:14:55.860Z,51.90
2018-12-31T03:16:01.165Z,51.40
2018-12-31T03:17:06.418Z,48.17
2018-12-31T03:18:11.814Z,51.97
2018-12-31T03:19:17.081Z,48.43
2018-12-31T03:20:22.415Z,45.87
2018-12-31T03:21:27.707Z,49.07
2018-12-31T03:22:33.027Z,47.17
2018-12-31T03:23:38.285Z,49.80
2018-12-31T03:24:43.566Z,49.27
2018-12-31T03:25:48.926Z,51.97
2018-12-31T03:26:54.099Z,50.17
2018-12-31T03:27:59.290Z,46.90
2018-12-31T03:29:04.533Z,45.50
2018-12-31T03:30:09.816Z,53.60
2018-12-31T03:31:15.056Z,44.50
2018-12-31T03:32:20.351Z,48.03
2018-12-31T03:33:25.605Z,44.20
2018-12-31T03:34:30.911Z,46.17
2018-12-31T03:35:36.273Z,42.53
2018-12-31T03:36:41.553Z,40.47
2018-12-31T03:37:46.801Z,43.77
2018-12-31T03:38:52.007Z,47.23
2018-12-31T03:39:57.292Z,41.57
2018-12-31T03:41:02.908Z,42.30
2018-12-31T03:42:08.192Z,39.73
2018-12-31T03:43:13.506Z,42.03
2018-12-31T03:44:19.792Z,38.47
2018-12-31T03:45:25.020Z,40.70
2018-12-31T03:46:30.352Z,39.03
2018-12-31T03:47:35.664Z,40.53
2018-12-31T03:48:40.988Z,36.67
2018-12-31T03:49:46.151Z,41.47
2018-12-31T03:50:51.499Z,41.03
2018-12-31T03:51:56.652Z,40.67
2018-12-31T03:53:01.948Z,43.73
2018-12-31T03:54:07.303Z,39.13
2018-12-31T03:55:12.600Z,39.80
2018-12-31T03:56:17.914Z,40.97
2018-12-31T03:57:23.113Z,37.83
2018-12-31T03:58:28.289Z,42.27
2018-12-31T03:59:33.596Z,39.43
2018-12-31T04:00:38.954Z,39.20
2018-12-31T04:01:44.136Z,39.43
2018-12-31T04:02:49.390Z,38.43
2018-12-31T04:03:54.491Z,40.17
2018-12-31T04:04:59.827Z,37.37
2018-12-31T04:06:05.001Z,35.77
2018-12-31T04:07:10.288Z,44.73
2018-12-31T04:08:15.562Z,39.07
2018-12-31T04:09:20.836Z,45.63
2018-12-31T04:10:26.220Z,40.67
2018-12-31T04:11:31.487Z,40.97
2018-12-31T04:12:36.846Z,40.43
2018-12-31T04:13:42.192Z,47.77
2018-12-31T04:14:47.464Z,38.40
2018-12-31T04:15:52.734Z,38.33
2018-12-31T04:16:58.036Z,41.57
2018-12-31T04:18:03.403Z,43.10
2018-12-31T04:19:08.715Z,40.57
2018-12-31T04:20:13.930Z,40.07
2018-12-31T04:21:19.182Z,40.43
2018-12-31T04:22:24.440Z,42.20
2018-12-31T04:23:29.786Z,43.70
2018-12-31T04:24:35.307Z,47.57
2018-12-31T04:25:40.661Z,42.10
2018-12-31T04:26:45.817Z,45.97
2018-12-31T04:27:51.129Z,44.97
2018-12-31T04:28:56.424Z,42.67
2018-12-31T04:30:01.715Z,45.80
2018-12-31T04:31:07.113Z,49.47
2018-12-31T04:32:12.412Z,48.20
2018-12-31T04:33:17.659Z,45.83
2018-12-31T04:34:22.915Z,45.57
2018-12-31T04:35:28.167Z,44.07
2018-12-31T04:36:33.325Z,42.40
2018-12-31T04:37:38.471Z,43.17
2018-12-31T04:38:43.610Z,44.37
2018-12-31T04:39:48.790Z,43.93
2018-12-31T04:40:53.986Z,41.10
2018-12-31T04:41:59.303Z,45.37
2018-12-31T04:43:04.419Z,43.23
2018-12-31T04:44:09.604Z,44.00
2018-12-31T04:45:14.845Z,41.50
2018-12-31T04:46:20.096Z,45.07
2018-12-31T04:47:25.237Z,42.53
2018-12-31T04:48:30.351Z,41.33
2018-12-31T04:49:35.610Z,45.07
2018-12-31T04:50:40.844Z,47.07
2018-12-31T04:51:46.060Z,42.70
2018-12-31T04:52:51.214Z,43.20
2018-12-31T04:53:56.427Z,43.20
2018-12-31T04:55:01.694Z,44.40
2018-12-31T04:56:06.915Z,43.43
2018-12-31T04:57:12.042Z,45.57
2018-12-31T04:58:22.916Z,46.07
2018-12-31T04:59:24.059Z,44.70
2018-12-31T05:00:29.164Z,41.07
2018-12-31T05:01:34.291Z,43.67
2018-12-31T05:02:39.421Z,46.87
2018-12-31T05:03:44.559Z,46.63
2018-12-31T05:04:49.740Z,43.80
2018-12-31T05:05:54.949Z,42.47
2018-12-31T05:07:00.087Z,44.77
2018-12-31T05:08:05.207Z,49.13
2018-12-31T05:09:10.336Z,43.50
2018-12-31T05:10:15.621Z,46.53
2018-12-31T05:11:20.698Z,48.10
2018-12-31T05:12:25.826Z,45.80
2018-12-31T05:13:30.879Z,47.53
2018-12-31T05:14:36.041Z,48.67
2018-12-31T05:15:41.245Z,43.70
2018-12-31T05:16:46.467Z,45.53
2018-12-31T05:17:51.633Z,45.73
2018-12-31T05:18:56.800Z,50.97
2018-12-31T05:20:02.082Z,47.87
2018-12-31T05:21:07.353Z,47.47
2018-12-31T05:22:12.471Z,44.73
2018-12-31T05:23:17.637Z,47.07
2018-12-31T05:24:22.805Z,46.27
2018-12-31T05:25:28.012Z,44.80
2018-12-31T05:26:33.173Z,48.13
2018-12-31T05:27:38.290Z,47.93
2018-12-31T05:28:43.533Z,52.20
2018-12-31T05:29:48.715Z,50.83
2018-12-31T05:30:53.967Z,46.47
2018-12-31T05:31:59.094Z,49.63
2018-12-31T05:33:04.514Z,50.63
2018-12-31T05:34:09.659Z,50.27
2018-12-31T05:35:14.816Z,46.67
2018-12-31T05:36:19.978Z,48.63
2018-12-31T05:37:25.148Z,42.33
2018-12-31T05:38:30.380Z,46.00
2018-12-31T05:39:35.552Z,49.03
2018-12-31T05:40:40.701Z,49.30
2018-12-31T05:41:45.866Z,47.87
2018-12-31T05:42:51.100Z,47.40
2018-12-31T05:43:56.253Z,51.40
2018-12-31T05:45:01.373Z,52.20
2018-12-31T05:46:06.586Z,52.83
2018-12-31T05:47:11.860Z,54.90
2018-12-31T05:48:17.104Z,57.80
2018-12-31T05:49:22.218Z,56.53
2018-12-31T05:50:27.445Z,51.07
2018-12-31T05:51:33.591Z,51.10
2018-12-31T05:52:38.856Z,53.40
2018-12-31T05:53:43.998Z,50.73
2018-12-31T05:54:49.075Z,52.73
2018-12-31T05:55:54.293Z,52.07
2018-12-31T05:56:59.483Z,51.00
2018-12-31T05:58:05.147Z,54.13
2018-12-31T05:59:10.265Z,54.93
2018-12-31T06:00:15.483Z,54.97
2018-12-31T06:01:20.615Z,59.37
2018-12-31T06:02:25.778Z,57.23
2018-12-31T06:03:30.924Z,59.87
2018-12-31T06:04:36.055Z,59.10
2018-12-31T06:05:41.177Z,61.87
2018-12-31T06:06:46.361Z,62.33
2018-12-31T06:07:51.501Z,59.17
2018-12-31T06:08:56.656Z,59.87
2018-12-31T06:10:01.862Z,59.23
2018-12-31T06:11:07.201Z,62.77
2018-12-31T06:12:12.358Z,57.30
2018-12-31T06:13:17.609Z,60.93
2018-12-31T06:14:22.770Z,64.30
2018-12-31T06:15:27.937Z,61.37
2018-12-31T06:16:33.194Z,66.23
2018-12-31T06:17:38.460Z,66.43
2018-12-31T06:18:43.632Z,60.73
2018-12-31T06:19:48.858Z,63.93
2018-12-31T06:20:54.109Z,55.80
2018-12-31T06:21:59.372Z,60.60
2018-12-31T06:23:04.701Z,60.33
2018-12-31T06:24:10.642Z,57.23
2018-12-31T06:25:15.921Z,57.93
2018-12-31T06:26:21.102Z,57.27
2018-12-31T06:27:26.367Z,59.93
2018-12-31T06:28:31.496Z,62.17
2018-12-31T06:29:36.631Z,58.20
2018-12-31T06:30:41.797Z,59.43
2018-12-31T06:31:47.010Z,55.93
2018-12-31T06:32:52.248Z,62.50
2018-12-31T06:33:57.386Z,58.10
2018-12-31T06:35:02.630Z,59.33
2018-12-31T06:36:08.792Z,56.63
2018-12-31T06:37:14.048Z,62.80
2018-12-31T06:38:19.187Z,55.80
2018-12-31T06:39:24.337Z,52.93
2018-12-31T06:40:29.573Z,56.47
2018-12-31T06:41:34.843Z,52.67
2018-12-31T06:42:40.060Z,53.33
2018-12-31T06:43:45.290Z,51.83
2018-12-31T06:44:50.493Z,58.57
2018-12-31T06:45:55.788Z,48.27
2018-12-31T06:47:01.000Z,53.80
2018-12-31T06:48:06.380Z,50.00
2018-12-31T06:49:11.611Z,46.87
2018-12-31T06:50:16.756Z,48.67
2018-12-31T06:51:21.997Z,51.93
2018-12-31T06:52:27.237Z,47.10
2018-12-31T06:53:32.406Z,49.90
2018-12-31T06:54:37.587Z,52.93
2018-12-31T06:55:42.827Z,46.50
2018-12-31T06:56:48.039Z,46.33
2018-12-31T06:57:53.267Z,51.20
2018-12-31T06:58:58.392Z,50.50
2018-12-31T07:00:03.775Z,46.07
2018-12-31T07:01:09.909Z,45.90
2018-12-31T07:02:15.150Z,48.37
2018-12-31T07:03:20.287Z,47.63
2018-12-31T07:04:25.451Z,52.33
2018-12-31T07:05:30.606Z,53.73
2018-12-31T07:06:35.851Z,48.27
2018-12-31T07:07:41.092Z,49.37
2018-12-31T07:08:46.322Z,50.63
2018-12-31T07:09:51.474Z,45.03
2018-12-31T07:10:56.689Z,45.57
2018-12-31T07:12:01.945Z,47.10
2018-12-31T07:13:07.141Z,45.77
2018-12-31T07:14:12.350Z,48.30
2018-12-31T07:15:17.421Z,42.33
2018-12-31T07:16:23.623Z,49.30
2018-12-31T07:17:28.799Z,42.67
2018-12-31T07:18:34.006Z,45.57
2018-12-31T07:19:40.460Z,44.87
2018-12-31T07:20:45.716Z,43.57
2018-12-31T07:21:50.951Z,45.10
2018-12-31T07:22:56.028Z,40.73
2018-12-31T07:24:01.145Z,44.67
2018-12-31T07:25:06.398Z,45.40
2018-12-31T07:26:11.692Z,42.10
2018-12-31T07:27:16.749Z,42.47
2018-12-31T07:28:21.862Z,35.37
2018-12-31T07:29:27.070Z,40.57
2018-12-31T07:30:33.191Z,41.53
2018-12-31T07:31:38.343Z,43.53
2018-12-31T07:32:43.806Z,40.47
2018-12-31T07:33:48.935Z,41.77
2018-12-31T07:34:54.075Z,41.37
2018-12-31T07:35:59.173Z,43.03
2018-12-31T07:37:04.411Z,39.20
2018-12-31T07:38:09.616Z,38.37
2018-12-31T07:39:14.716Z,39.27
2018-12-31T07:40:19.872Z,37.90
2018-12-31T07:41:25.097Z,36.47
2018-12-31T07:42:30.244Z,44.87
2018-12-31T07:43:35.384Z,41.63
2018-12-31T07:44:40.633Z,36.50
2018-12-31T07:45:45.885Z,43.97
2018-12-31T07:46:51.132Z,41.03
2018-12-31T07:47:56.266Z,47.83
2018-12-31T07:49:01.422Z,40.20
2018-12-31T07:50:06.611Z,37.90
2018-12-31T07:51:12.108Z,40.93
2018-12-31T07:52:17.252Z,36.73
2018-12-31T07:53:22.510Z,38.60
2018-12-31T07:54:27.679Z,41.40
2018-12-31T07:55:32.936Z,41.60
2018-12-31T07:56:38.147Z,35.87
2018-12-31T07:57:43.314Z,36.77
2018-12-31T07:58:48.449Z,39.13
2018-12-31T07:59:53.588Z,47.23
2018-12-31T08:00:58.827Z,39.77
2018-12-31T08:02:03.996Z,39.63
2018-12-31T08:03:09.169Z,38.37
2018-12-31T08:04:16.034Z,40.60
2018-12-31T08:05:21.260Z,40.00
2018-12-31T08:06:26.429Z,33.87
2018-12-31T08:07:31.670Z,34.60
2018-12-31T08:08:36.864Z,42.13
2018-12-31T08:09:42.029Z,39.57
2018-12-31T08:10:47.235Z,39.90
2018-12-31T08:11:52.407Z,40.50
2018-12-31T08:12:57.515Z,38.00
2018-12-31T08:14:02.682Z,42.23
2018-12-31T08:15:08.106Z,37.50
2018-12-31T08:16:13.407Z,38.23
2018-12-31T08:17:18.664Z,34.57
2018-12-31T08:18:23.824Z,37.57
2018-12-31T08:19:28.966Z,35.53
2018-12-31T08:20:34.117Z,40.40
2018-12-31T08:21:39.288Z,43.23
2018-12-31T08:22:44.472Z,38.73
2018-12-31T08:23:49.588Z,38.70
2018-12-31T08:24:54.742Z,35.50
2018-12-31T08:25:59.909Z,38.60
2018-12-31T08:27:04.974Z,35.73
2018-12-31T08:28:10.244Z,37.53
2018-12-31T08:29:15.439Z,39.37
2018-12-31T08:30:20.908Z,34.37
2018-12-31T08:31:26.055Z,38.73
2018-12-31T08:32:31.318Z,39.37
2018-12-31T08:33:36.466Z,33.47
2018-12-31T08:34:41.630Z,33.10
2018-12-31T08:35:46.870Z,42.50
2018-12-31T08:36:52.037Z,38.40
2018-12-31T08:37:57.273Z,36.93
2018-12-31T08:39:02.488Z,34.83
2018-12-31T08:40:08.506Z,33.93
2018-12-31T08:41:13.824Z,33.67
2018-12-31T08:42:19.072Z,42.10
2018-12-31T08:43:24.194Z,39.13
2018-12-31T08:44:29.463Z,32.73
2018-12-31T08:45:34.599Z,32.90
2018-12-31T08:46:39.784Z,32.07
2018-12-31T08:47:44.886Z,29.90
2018-12-31T08:48:49.960Z,32.80
2018-12-31T08:49:55.116Z,32.90
2018-12-31T08:51:01.244Z,27.53
2018-12-31T08:52:06.446Z,30.10
2018-12-31T08:53:11.623Z,28.93
2018-12-31T08:54:16.838Z,27.37
2018-12-31T08:55:22.077Z,27.03
2018-12-31T08:56:27.178Z,30.27
2018-12-31T08:57:32.324Z,30.67
2018-12-31T08:58:37.491Z,27.90
2018-12-31T08:59:42.616Z,29.93
2018-12-31T09:00:47.771Z,28.17
2018-12-31T09:01:52.897Z,27.97
2018-12-31T09:02:58.377Z,26.50
2018-12-31T09:04:03.527Z,23.87
2018-12-31T09:05:08.689Z,27.67
2018-12-31T09:06:13.947Z,27.33
2018-12-31T09:07:19.176Z,28.53
2018-12-31T09:08:24.415Z,28.20
2018-12-31T09:09:29.534Z,28.53
2018-12-31T09:10:34.807Z,29.50
2018-12-31T09:11:40.040Z,29.67
2018-12-31T09:12:45.201Z,27.73
2018-12-31T09:13:50.401Z,28.53
2018-12-31T09:14:55.627Z,22.13
2018-12-31T09:16:00.805Z,21.07
2018-12-31T09:17:06.060Z,23.03
2018-12-31T09:18:11.293Z,27.17
2018-12-31T09:19:16.561Z,30.90
2018-12-31T09:20:21.827Z,22.13
2018-12-31T09:21:27.025Z,25.67
2018-12-31T09:22:32.205Z,28.57
2018-12-31T09:23:37.458Z,26.57
2018-12-31T09:24:44.711Z,28.10
2018-12-31T09:25:49.494Z,39.57
2018-12-31T09:26:54.645Z,37.13
2018-12-31T09:27:59.817Z,28.70
2018-12-31T09:29:05.053Z,28.83
2018-12-31T09:30:10.217Z,24.10
2018-12-31T09:31:15.527Z,29.67
2018-12-31T09:32:20.624Z,22.97
2018-12-31T09:33:25.857Z,32.87
2018-12-31T09:34:31.075Z,31.80
2018-12-31T09:35:36.225Z,25.10
2018-12-31T09:36:41.678Z,36.90
2018-12-31T09:37:46.818Z,27.47
2018-12-31T09:38:52.013Z,31.33
2018-12-31T09:39:57.228Z,26.20
2018-12-31T09:41:02.449Z,34.10
2018-12-31T09:42:07.689Z,28.00
2018-12-31T09:43:13.068Z,22.87
2018-12-31T09:44:18.769Z,23.57
2018-12-31T09:45:23.905Z,36.20
2018-12-31T09:46:29.035Z,28.73
2018-12-31T09:47:34.179Z,25.57
2018-12-31T09:48:39.348Z,29.30
2018-12-31T09:49:44.469Z,27.30
2018-12-31T09:50:49.917Z,33.47
2018-12-31T09:51:55.056Z,31.10
2018-12-31T09:53:00.339Z,23.90
2018-12-31T09:54:05.631Z,26.43
2018-12-31T09:55:10.976Z,23.17
2018-12-31T09:56:16.155Z,27.63
2018-12-31T09:57:21.337Z,27.77
2018-12-31T09:58:26.573Z,22.40
2018-12-31T09:59:32.256Z,27.30
2018-12-31T10:00:37.507Z,34.83
2018-12-31T10:01:42.602Z,36.93
2018-12-31T10:02:47.935Z,29.67
2018-12-31T10:03:53.172Z,28.90
2018-12-31T10:04:58.471Z,30.50
2018-12-31T10:06:03.660Z,27.50
2018-12-31T10:07:08.909Z,28.30
2018-12-31T10:08:14.136Z,33.63
2018-12-31T10:09:20.003Z,24.80
2018-12-31T10:10:25.396Z,26.00
2018-12-31T10:11:30.758Z,22.00
2018-12-31T10:12:39.573Z,34.33
2018-12-31T10:13:44.773Z,27.60
2018-12-31T10:14:49.920Z,27.30
2018-12-31T10:15:55.092Z,29.07
2018-12-31T10:17:00.265Z,30.10
2018-12-31T10:18:05.498Z,33.60
2018-12-31T10:19:10.763Z,31.77
2018-12-31T10:20:15.939Z,30.07
2018-12-31T10:21:21.160Z,31.03
2018-12-31T10:22:26.410Z,30.87
2018-12-31T10:23:31.728Z,32.03
2018-12-31T10:24:36.906Z,35.47
2018-12-31T10:25:42.171Z,32.73
2018-12-31T10:26:47.370Z,28.10
2018-12-31T10:27:52.663Z,28.63
2018-12-31T10:28:57.856Z,27.07
2018-12-31T10:30:03.101Z,36.83
2018-12-31T10:31:08.238Z,42.70
2018-12-31T10:32:13.568Z,28.10
2018-12-31T10:33:19.546Z,32.20
2018-12-31T10:34:23.786Z,30.27
2018-12-31T10:35:29.048Z,41.90
2018-12-31T10:36:34.294Z,29.87
2018-12-31T10:37:39.589Z,35.07
2018-12-31T10:38:51.083Z,38.53
2018-12-31T10:39:51.612Z,40.73
2018-12-31T10:40:56.833Z,39.83
2018-12-31T10:42:02.113Z,33.03
2018-12-31T10:43:07.444Z,33.63
2018-12-31T10:44:12.769Z,32.90
2018-12-31T10:45:18.047Z,35.83
2018-12-31T10:46:23.370Z,34.80
2018-12-31T10:47:28.740Z,37.17
2018-12-31T10:48:33.992Z,37.47
2018-12-31T10:49:39.324Z,38.93
2018-12-31T10:50:44.585Z,36.80
2018-12-31T10:51:49.950Z,33.47
2018-12-31T10:52:55.235Z,33.43
2018-12-31T10:54:00.493Z,33.70
2018-12-31T10:55:06.202Z,38.63
2018-12-31T10:56:11.775Z,31.37
2018-12-31T10:57:18.016Z,36.90
2018-12-31T10:58:24.397Z,36.00
2018-12-31T10:59:29.636Z,40.07
2018-12-31T11:00:34.952Z,35.77
2018-12-31T11:01:41.181Z,37.97
2018-12-31T11:02:46.430Z,32.93
2018-12-31T11:03:51.626Z,30.03
2018-12-31T11:04:57.099Z,34.90
2018-12-31T11:06:02.407Z,32.47
2018-12-31T11:07:07.722Z,42.53
2018-12-31T11:08:12.933Z,40.03
2018-12-31T11:09:18.175Z,37.47
2018-12-31T11:10:23.464Z,33.60
2018-12-31T11:11:28.767Z,31.83
2018-12-31T11:12:34.161Z,32.40
2018-12-31T11:13:39.484Z,44.50
2018-12-31T11:14:44.936Z,36.80
2018-12-31T11:15:50.224Z,31.13
2018-12-31T11:16:55.608Z,32.50
2018-12-31T11:18:00.931Z,35.23
2018-12-31T11:19:06.219Z,33.37
2018-12-31T11:20:11.447Z,34.63
2018-12-31T11:21:16.750Z,45.50
2018-12-31T11:22:22.042Z,39.43
2018-12-31T11:23:27.352Z,43.73
2018-12-31T11:24:32.636Z,49.50
2018-12-31T11:25:37.983Z,37.63
2018-12-31T11:26:43.285Z,47.67
2018-12-31T11:27:48.616Z,40.10
2018-12-31T11:28:53.823Z,29.97
2018-12-31T11:29:59.039Z,29.73
2018-12-31T11:31:04.276Z,41.07
2018-12-31T11:32:09.540Z,34.70
2018-12-31T11:33:14.919Z,39.63
2018-12-31T11:34:20.197Z,39.63
2018-12-31T11:35:25.551Z,41.07
2018-12-31T11:36:32.469Z,29.87
2018-12-31T11:37:37.930Z,38.63
2018-12-31T11:38:43.181Z,35.07
2018-12-31T11:39:48.468Z,31.07
2018-12-31T11:40:53.762Z,40.60
2018-12-31T11:41:59.064Z,34.47
2018-12-31T11:43:04.434Z,29.13
2018-12-31T11:44:09.617Z,35.73
2018-12-31T11:45:14.936Z,39.80
2018-12-31T11:46:20.288Z,46.53
2018-12-31T11:47:25.601Z,36.50
2018-12-31T11:48:30.808Z,31.30
2018-12-31T11:49:36.101Z,38.10
2018-12-31T11:50:41.399Z,38.03
2018-12-31T11:51:46.700Z,35.73
2018-12-31T11:52:51.914Z,36.87
2018-12-31T11:53:57.193Z,35.77
2018-12-31T11:55:03.518Z,34.83
2018-12-31T11:56:09.972Z,34.33
2018-12-31T11:57:15.275Z,31.27
2018-12-31T11:58:20.472Z,28.43
2018-12-31T11:59:25.644Z,32.20
2018-12-31T12:00:30.886Z,32.23
2018-12-31T12:01:36.123Z,36.20
2018-12-31T12:02:41.415Z,33.17
2018-12-31T12:03:46.719Z,32.80
2018-12-31T12:04:52.035Z,34.30
2018-12-31T12:05:57.254Z,38.60
2018-12-31T12:07:02.602Z,33.50
2018-12-31T12:08:07.877Z,34.70
2018-12-31T12:09:13.142Z,29.37
2018-12-31T12:10:18.748Z,30.70
2018-12-31T12:11:24.015Z,35.60
2018-12-31T12:12:29.302Z,37.57
2018-12-31T12:13:34.574Z,34.70
2018-12-31T12:14:39.792Z,27.77
2018-12-31T12:15:45.130Z,37.83
2018-12-31T12:16:50.406Z,30.97
2018-12-31T12:17:55.675Z,31.10
2018-12-31T12:19:00.933Z,29.63
2018-12-31T12:20:06.404Z,33.00
2018-12-31T12:21:11.754Z,30.07
2018-12-31T12:22:17.240Z,29.10
2018-12-31T12:23:22.948Z,32.20
2018-12-31T12:24:28.536Z,35.80
2018-12-31T12:25:33.870Z,31.20
2018-12-31T12:26:39.209Z,37.97
2018-12-31T12:27:44.392Z,31.57
2018-12-31T12:28:49.692Z,32.13
2018-12-31T12:29:55.082Z,32.40
2018-12-31T12:31:00.368Z,37.30
2018-12-31T12:32:05.704Z,31.53
2018-12-31T12:33:11.096Z,30.93
2018-12-31T12:34:16.291Z,35.73
2018-12-31T12:35:21.623Z,34.27
2018-12-31T12:36:26.980Z,34.07
2018-12-31T12:37:32.270Z,33.33
2018-12-31T12:38:37.567Z,34.83
2018-12-31T12:39:42.854Z,31.40
2018-12-31T12:40:48.126Z,33.53
2018-12-31T12:41:53.429Z,39.30
2018-12-31T12:42:58.702Z,32.43
2018-12-31T12:44:03.921Z,31.43
2018-12-31T12:45:09.237Z,34.47
2018-12-31T12:46:14.506Z,35.37
2018-12-31T12:47:19.783Z,30.67
2018-12-31T12:48:25.059Z,33.07
2018-12-31T12:49:30.266Z,30.83
2018-12-31T12:50:35.554Z,30.73
2018-12-31T12:51:40.882Z,33.27
2018-12-31T12:52:46.141Z,40.00
2018-12-31T12:53:51.507Z,35.07
2018-12-31T12:54:57.173Z,34.67
2018-12-31T12:56:02.462Z,29.63
2018-12-31T12:57:07.797Z,31.60
2018-12-31T12:58:12.965Z,32.00
2018-12-31T12:59:18.279Z,32.77
2018-12-31T13:00:23.574Z,33.33
2018-12-31T13:01:28.941Z,35.67
2018-12-31T13:02:34.275Z,39.10
2018-12-31T13:03:39.524Z,38.97
2018-12-31T13:04:44.837Z,38.40
2018-12-31T13:05:50.118Z,35.90
2018-12-31T13:06:55.368Z,30.70
2018-12-31T13:08:00.779Z,31.43
2018-12-31T13:09:07.360Z,32.10
2018-12-31T13:10:12.595Z,33.47
2018-12-31T13:11:17.864Z,36.83
2018-12-31T13:12:23.051Z,31.67
2018-12-31T13:13:28.332Z,32.07
2018-12-31T13:14:33.623Z,35.93
2018-12-31T13:15:38.844Z,36.87
2018-12-31T13:16:44.155Z,35.90
2018-12-31T13:17:49.348Z,36.80
2018-12-31T13:18:54.614Z,31.53
2018-12-31T13:19:59.840Z,32.43
2018-12-31T13:21:05.043Z,34.33
2018-12-31T13:22:10.254Z,28.67
2018-12-31T13:23:15.589Z,29.80
2018-12-31T13:24:20.824Z,31.07
2018-12-31T13:25:26.426Z,33.20
2018-12-31T13:26:31.924Z,36.33
2018-12-31T13:27:37.251Z,31.87
2018-12-31T13:28:42.598Z,28.13
2018-12-31T13:29:47.853Z,27.20
2018-12-31T13:30:53.142Z,33.03
2018-12-31T13:31:58.442Z,28.97
2018-12-31T13:33:03.793Z,38.50
2018-12-31T13:34:09.177Z,32.10
2018-12-31T13:35:14.466Z,31.73
2018-12-31T13:36:19.678Z,28.83
2018-12-31T13:37:25.035Z,34.17
2018-12-31T13:38:30.374Z,31.60
2018-12-31T13:39:35.975Z,36.60
2018-12-31T13:40:41.194Z,28.67
2018-12-31T13:41:46.428Z,31.97
2018-12-31T13:42:51.753Z,34.33
2018-12-31T13:43:56.997Z,40.90
2018-12-31T13:45:02.321Z,29.47
2018-12-31T13:46:07.567Z,30.97
2018-12-31T13:47:12.875Z,35.13
2018-12-31T13:48:18.186Z,30.77
2018-12-31T13:49:23.537Z,37.13
2018-12-31T13:50:28.788Z,32.73
2018-12-31T13:51:34.176Z,28.40
2018-12-31T13:52:39.477Z,29.20
2018-12-31T13:53:44.820Z,30.93
2018-12-31T13:54:50.151Z,36.17
2018-12-31T13:55:55.666Z,35.90
2018-12-31T13:57:01.226Z,33.30
2018-12-31T13:58:06.892Z,34.17
2018-12-31T13:59:12.222Z,34.87
2018-12-31T14:00:17.482Z,32.17
2018-12-31T14:01:22.840Z,30.20